sensor_id;sensor_type;location;lat;lon;timestamp;pressure;altitude;pressure_sealevel;temperature;humidity
54920;BME280;63804;53.120;8.764;2023-05-02T00:01:19;101707.47;;;13.40;68.22
54920;BME280;63804;53.120;8.764;2023-05-02T00:03:46;101702.22;;;13.38;68.41
54920;BME280;63804;53.120;8.764;2023-05-02T00:06:14;101701.31;;;13.39;68.36
54920;BME280;63804;53.120;8.764;2023-05-02T00:08:41;101700.34;;;13.40;68.25
54920;BME280;63804;53.120;8.764;2023-05-02T00:11:08;101696.50;;;13.45;68.16
54920;BME280;63804;53.120;8.764;2023-05-02T00:13:35;101700.13;;;13.44;68.43
54920;BME280;63804;53.120;8.764;2023-05-02T00:16:02;101700.13;;;13.44;68.31
54920;BME280;63804;53.120;8.764;2023-05-02T00:18:29;101704.47;;;13.45;68.51
54920;BME280;63804;53.120;8.764;2023-05-02T00:20:56;101704.25;;;13.48;68.23
54920;BME280;63804;53.120;8.764;2023-05-02T00:23:23;101701.69;;;13.46;68.62
54920;BME280;63804;53.120;8.764;2023-05-02T00:25:50;101706.09;;;13.47;68.50
54920;BME280;63804;53.120;8.764;2023-05-02T00:28:17;101701.06;;;13.43;68.46
54920;BME280;63804;53.120;8.764;2023-05-02T00:30:45;101708.19;;;13.42;68.60
54920;BME280;63804;53.120;8.764;2023-05-02T00:33:13;101712.03;;;13.38;68.83
54920;BME280;63804;53.120;8.764;2023-05-02T00:35:41;101709.28;;;13.39;68.62
54920;BME280;63804;53.120;8.764;2023-05-02T00:38:08;101705.09;;;13.35;68.94
54920;BME280;63804;53.120;8.764;2023-05-02T00:43:10;101711.38;;;13.34;68.77
54920;BME280;63804;53.120;8.764;2023-05-02T00:45:38;101710.53;;;13.34;68.93
54920;BME280;63804;53.120;8.764;2023-05-02T00:48:12;101702.22;;;13.38;68.30
54920;BME280;63804;53.120;8.764;2023-05-02T00:50:40;101711.81;;;13.41;68.41
54920;BME280;63804;53.120;8.764;2023-05-02T00:53:09;101712.66;;;13.41;68.64
54920;BME280;63804;53.120;8.764;2023-05-02T00:55:37;101710.53;;;13.34;68.91
54920;BME280;63804;53.120;8.764;2023-05-02T00:58:08;101709.69;;;13.33;68.71
54920;BME280;63804;53.120;8.764;2023-05-02T01:03:45;101717.25;;;13.27;69.23
54920;BME280;63804;53.120;8.764;2023-05-02T01:09:33;101714.50;;;13.28;69.07
54920;BME280;63804;53.120;8.764;2023-05-02T01:12:08;101718.38;;;13.23;69.36
54920;BME280;63804;53.120;8.764;2023-05-02T01:14:41;101724.50;;;13.25;69.46
54920;BME280;63804;53.120;8.764;2023-05-02T01:17:11;101713.75;;;13.26;69.61
54920;BME280;63804;53.120;8.764;2023-05-02T01:19:42;101726.47;;;13.21;69.83
54920;BME280;63804;53.120;8.764;2023-05-02T01:22:11;101730.41;;;13.15;70.12
54920;BME280;63804;53.120;8.764;2023-05-02T01:24:51;101722.34;;;13.17;70.52
54920;BME280;63804;53.120;8.764;2023-05-02T01:27:33;101730.84;;;13.22;70.49
54920;BME280;63804;53.120;8.764;2023-05-02T01:30:03;101732.53;;;13.10;71.06
54920;BME280;63804;53.120;8.764;2023-05-02T01:32:33;101738.19;;;13.06;71.79
54920;BME280;63804;53.120;8.764;2023-05-02T01:35:04;101734.88;;;13.02;71.83
54920;BME280;63804;53.120;8.764;2023-05-02T01:37:32;101751.34;;;12.95;72.40
54920;BME280;63804;53.120;8.764;2023-05-02T01:40:01;101744.59;;;12.76;74.04
54920;BME280;63804;53.120;8.764;2023-05-02T01:42:31;101748.22;;;12.75;74.29
54920;BME280;63804;53.120;8.764;2023-05-02T01:45:02;101743.97;;;12.73;74.59
54920;BME280;63804;53.120;8.764;2023-05-02T01:47:31;101753.84;;;12.71;74.96
54920;BME280;63804;53.120;8.764;2023-05-02T01:50:00;101754.78;;;12.69;74.67
54920;BME280;63804;53.120;8.764;2023-05-02T01:52:29;101764.44;;;12.58;75.34
54920;BME280;63804;53.120;8.764;2023-05-02T01:54:58;101767.84;;;12.60;75.30
54920;BME280;63804;53.120;8.764;2023-05-02T01:57:26;101765.06;;;12.61;74.96
54920;BME280;63804;53.120;8.764;2023-05-02T01:59:57;101775.91;;;12.58;74.69
54920;BME280;63804;53.120;8.764;2023-05-02T02:02:26;101781.06;;;12.47;74.32
54920;BME280;63804;53.120;8.764;2023-05-02T02:04:56;101786.19;;;12.50;73.72
54920;BME280;63804;53.120;8.764;2023-05-02T02:07:25;101788.59;;;12.40;73.99
54920;BME280;63804;53.120;8.764;2023-05-02T02:09:52;101789.34;;;12.42;73.57
54920;BME280;63804;53.120;8.764;2023-05-02T02:12:24;101789.25;;;12.44;73.53
54920;BME280;63804;53.120;8.764;2023-05-02T02:14:59;101793.03;;;12.40;73.58
54920;BME280;63804;53.120;8.764;2023-05-02T02:17:36;101802.53;;;12.44;73.70
54920;BME280;63804;53.120;8.764;2023-05-02T02:20:08;101800.28;;;12.38;73.88
54920;BME280;63804;53.120;8.764;2023-05-02T02:22:37;101805.59;;;12.38;73.78
54920;BME280;63804;53.120;8.764;2023-05-02T02:25:07;101822.00;;;12.30;73.60
54920;BME280;63804;53.120;8.764;2023-05-02T02:27:36;101825.81;;;12.12;73.04
54920;BME280;63804;53.120;8.764;2023-05-02T02:30:04;101819.84;;;12.08;72.24
54920;BME280;63804;53.120;8.764;2023-05-02T02:32:31;101833.41;;;11.89;71.48
54920;BME280;63804;53.120;8.764;2023-05-02T02:34:59;101838.72;;;11.89;71.04
54920;BME280;63804;53.120;8.764;2023-05-02T02:37:47;101843.38;;;11.86;70.33
54920;BME280;63804;53.120;8.764;2023-05-02T02:40:38;101837.59;;;11.93;69.69
54920;BME280;63804;53.120;8.764;2023-05-02T02:43:32;101846.13;;;11.84;70.01
54920;BME280;63804;53.120;8.764;2023-05-02T02:48:39;101857.50;;;11.86;69.48
54920;BME280;63804;53.120;8.764;2023-05-02T02:51:12;101865.28;;;11.89;69.01
54920;BME280;63804;53.120;8.764;2023-05-02T02:53:54;101872.81;;;11.81;68.99
54920;BME280;63804;53.120;8.764;2023-05-02T02:56:30;101875.56;;;11.65;69.45
54920;BME280;63804;53.120;8.764;2023-05-02T02:59:05;101881.53;;;11.69;69.18
54920;BME280;63804;53.120;8.764;2023-05-02T03:01:35;101884.09;;;11.70;68.75
54920;BME280;63804;53.120;8.764;2023-05-02T03:04:06;101890.06;;;11.74;68.33
54920;BME280;63804;53.120;8.764;2023-05-02T03:06:35;101895.47;;;11.73;68.29
54920;BME280;63804;53.120;8.764;2023-05-02T03:09:02;101891.59;;;11.78;68.18
54920;BME280;63804;53.120;8.764;2023-05-02T03:11:29;101894.03;;;11.67;68.35
54920;BME280;63804;53.120;8.764;2023-05-02T03:13:56;101897.94;;;11.76;68.28
54920;BME280;63804;53.120;8.764;2023-05-02T03:18:57;101903.97;;;11.63;68.28
54920;BME280;63804;53.120;8.764;2023-05-02T03:21:24;101923.88;;;11.56;67.95
54920;BME280;63804;53.120;8.764;2023-05-02T03:23:51;101927.44;;;11.55;67.68
54920;BME280;63804;53.120;8.764;2023-05-02T03:26:18;101941.78;;;11.53;67.49
54920;BME280;63804;53.120;8.764;2023-05-02T03:28:45;101934.50;;;11.40;67.07
54920;BME280;63804;53.120;8.764;2023-05-02T03:31:12;101943.41;;;11.39;66.43
54920;BME280;63804;53.120;8.764;2023-05-02T03:33:40;101947.19;;;11.35;66.23
54920;BME280;63804;53.120;8.764;2023-05-02T03:36:07;101954.28;;;11.35;66.20
54920;BME280;63804;53.120;8.764;2023-05-02T03:38:34;101953.78;;;11.28;65.61
54920;BME280;63804;53.120;8.764;2023-05-02T03:41:02;101965.84;;;11.18;65.14
54920;BME280;63804;53.120;8.764;2023-05-02T03:43:29;101969.44;;;11.17;65.39
54920;BME280;63804;53.120;8.764;2023-05-02T03:45:57;101971.09;;;11.19;64.95
54920;BME280;63804;53.120;8.764;2023-05-02T03:48:24;101971.50;;;11.12;65.28
54920;BME280;63804;53.120;8.764;2023-05-02T03:50:51;101979.31;;;11.15;64.91
54920;BME280;63804;53.120;8.764;2023-05-02T03:53:18;101977.56;;;11.14;64.37
54920;BME280;63804;53.120;8.764;2023-05-02T03:55:45;101984.16;;;11.22;63.99
54920;BME280;63804;53.120;8.764;2023-05-02T03:58:12;101991.94;;;11.10;63.52
54920;BME280;63804;53.120;8.764;2023-05-02T04:00:39;101986.91;;;11.05;63.73
54920;BME280;63804;53.120;8.764;2023-05-02T04:03:06;102002.91;;;11.04;63.33
54920;BME280;63804;53.120;8.764;2023-05-02T04:05:33;102008.00;;;10.91;63.59
54920;BME280;63804;53.120;8.764;2023-05-02T04:08:00;102011.88;;;11.01;62.87
54920;BME280;63804;53.120;8.764;2023-05-02T04:10:28;102008.09;;;11.05;62.77
54920;BME280;63804;53.120;8.764;2023-05-02T04:12:55;102015.31;;;11.03;62.42
54920;BME280;63804;53.120;8.764;2023-05-02T04:15:22;102016.00;;;11.07;62.09
54920;BME280;63804;53.120;8.764;2023-05-02T04:17:49;102027.88;;;11.00;62.11
54920;BME280;63804;53.120;8.764;2023-05-02T04:20:16;102031.03;;;11.06;61.63
54920;BME280;63804;53.120;8.764;2023-05-02T04:22:43;102049.84;;;11.02;61.58
54920;BME280;63804;53.120;8.764;2023-05-02T04:25:10;102042.31;;;10.94;61.73
54920;BME280;63804;53.120;8.764;2023-05-02T04:27:37;102047.53;;;10.95;61.66
54920;BME280;63804;53.120;8.764;2023-05-02T04:30:04;102045.38;;;11.02;61.36
54920;BME280;63804;53.120;8.764;2023-05-02T04:32:32;102043.69;;;11.01;61.36
54920;BME280;63804;53.120;8.764;2023-05-02T04:34:59;102053.53;;;10.99;61.25
54920;BME280;63804;53.120;8.764;2023-05-02T04:37:27;102055.28;;;10.98;61.29
54920;BME280;63804;53.120;8.764;2023-05-02T04:39:54;102056.69;;;11.06;60.96
54920;BME280;63804;53.120;8.764;2023-05-02T04:42:22;102062.41;;;11.14;60.77
54920;BME280;63804;53.120;8.764;2023-05-02T04:44:49;102067.03;;;11.10;60.76
54920;BME280;63804;53.120;8.764;2023-05-02T04:47:16;102078.72;;;11.06;60.50
54920;BME280;63804;53.120;8.764;2023-05-02T04:49:43;102079.84;;;11.02;60.69
54920;BME280;63804;53.120;8.764;2023-05-02T04:52:10;102079.78;;;11.04;60.78
54920;BME280;63804;53.120;8.764;2023-05-02T04:54:37;102087.47;;;11.08;60.34
54920;BME280;63804;53.120;8.764;2023-05-02T04:57:04;102088.31;;;11.09;60.32
54920;BME280;63804;53.120;8.764;2023-05-02T04:59:33;102098.59;;;10.99;59.97
54920;BME280;63804;53.120;8.764;2023-05-02T05:02:00;102104.56;;;11.03;59.83
54920;BME280;63804;53.120;8.764;2023-05-02T05:04:28;102110.38;;;11.09;59.40
54920;BME280;63804;53.120;8.764;2023-05-02T05:06:55;102116.66;;;10.91;59.43
54920;BME280;63804;53.120;8.764;2023-05-02T05:09:22;102126.75;;;10.84;59.51
54920;BME280;63804;53.120;8.764;2023-05-02T05:11:49;102127.38;;;10.89;59.17
54920;BME280;63804;53.120;8.764;2023-05-02T05:14:16;102128.47;;;10.68;59.54
54920;BME280;63804;53.120;8.764;2023-05-02T05:16:43;102130.13;;;10.70;59.50
54920;BME280;63804;53.120;8.764;2023-05-02T05:19:10;102137.81;;;10.75;59.83
54920;BME280;63804;53.120;8.764;2023-05-02T05:21:38;102138.81;;;10.90;59.40
54920;BME280;63804;53.120;8.764;2023-05-02T05:24:05;102147.56;;;10.92;59.22
54920;BME280;63804;53.120;8.764;2023-05-02T05:26:32;102149.66;;;10.85;58.92
54920;BME280;63804;53.120;8.764;2023-05-02T05:28:59;102150.47;;;10.70;59.04
54920;BME280;63804;53.120;8.764;2023-05-02T05:31:26;102160.28;;;10.68;59.16
54920;BME280;63804;53.120;8.764;2023-05-02T05:33:53;102162.38;;;10.79;58.91
54920;BME280;63804;53.120;8.764;2023-05-02T05:36:20;102160.56;;;10.79;58.89
54920;BME280;63804;53.120;8.764;2023-05-02T05:38:49;102164.22;;;10.94;58.42
54920;BME280;63804;53.120;8.764;2023-05-02T05:41:17;102164.78;;;10.83;58.82
54920;BME280;63804;53.120;8.764;2023-05-02T05:43:44;102173.31;;;10.72;59.17
54920;BME280;63804;53.120;8.764;2023-05-02T05:46:11;102181.06;;;10.76;58.58
54920;BME280;63804;53.120;8.764;2023-05-02T05:48:38;102190.06;;;10.73;58.57
54920;BME280;63804;53.120;8.764;2023-05-02T05:51:05;102191.59;;;10.77;58.71
54920;BME280;63804;53.120;8.764;2023-05-02T05:53:33;102204.38;;;10.86;58.69
54920;BME280;63804;53.120;8.764;2023-05-02T05:56:08;102207.97;;;10.85;59.00
54920;BME280;63804;53.120;8.764;2023-05-02T05:58:36;102210.72;;;10.84;58.78
54920;BME280;63804;53.120;8.764;2023-05-02T06:01:04;102212.72;;;10.79;57.80
54920;BME280;63804;53.120;8.764;2023-05-02T06:03:32;102209.38;;;10.75;57.65
54920;BME280;63804;53.120;8.764;2023-05-02T06:05:59;102223.41;;;10.77;57.08
54920;BME280;63804;53.120;8.764;2023-05-02T06:08:29;102225.34;;;10.73;56.42
54920;BME280;63804;53.120;8.764;2023-05-02T06:10:56;102233.97;;;10.60;56.65
54920;BME280;63804;53.120;8.764;2023-05-02T06:13:23;102231.34;;;10.60;56.01
54920;BME280;63804;53.120;8.764;2023-05-02T06:15:50;102237.81;;;10.54;54.94
54920;BME280;63804;53.120;8.764;2023-05-02T06:18:17;102240.47;;;10.54;54.62
54920;BME280;63804;53.120;8.764;2023-05-02T06:20:44;102247.69;;;10.68;54.41
54920;BME280;63804;53.120;8.764;2023-05-02T06:23:11;102252.28;;;10.64;53.88
54920;BME280;63804;53.120;8.764;2023-05-02T06:25:38;102256.53;;;10.68;53.75
54920;BME280;63804;53.120;8.764;2023-05-02T06:28:05;102257.28;;;10.70;53.58
54920;BME280;63804;53.120;8.764;2023-05-02T06:30:33;102266.34;;;10.66;53.19
54920;BME280;63804;53.120;8.764;2023-05-02T06:33:03;102271.94;;;10.60;53.01
54920;BME280;63804;53.120;8.764;2023-05-02T06:35:30;102265.72;;;10.61;53.06
54920;BME280;63804;53.120;8.764;2023-05-02T06:37:57;102269.38;;;10.59;52.18
54920;BME280;63804;53.120;8.764;2023-05-02T06:40:24;102282.78;;;10.73;51.94
54920;BME280;63804;53.120;8.764;2023-05-02T06:42:51;102280.00;;;10.76;51.92
54920;BME280;63804;53.120;8.764;2023-05-02T06:45:18;102281.56;;;10.80;51.33
54920;BME280;63804;53.120;8.764;2023-05-02T06:47:45;102285.81;;;10.83;50.84
54920;BME280;63804;53.120;8.764;2023-05-02T06:50:15;102291.06;;;10.84;50.88
54920;BME280;63804;53.120;8.764;2023-05-02T06:52:42;102296.69;;;10.95;50.88
54920;BME280;63804;53.120;8.764;2023-05-02T06:55:09;102300.72;;;11.03;50.25
54920;BME280;63804;53.120;8.764;2023-05-02T06:57:36;102302.03;;;10.94;50.09
54920;BME280;63804;53.120;8.764;2023-05-02T07:00:04;102299.16;;;10.98;50.31
54920;BME280;63804;53.120;8.764;2023-05-02T07:02:31;102308.75;;;11.01;50.07
54920;BME280;63804;53.120;8.764;2023-05-02T07:04:58;102313.81;;;10.88;49.48
54920;BME280;63804;53.120;8.764;2023-05-02T07:07:25;102315.53;;;10.89;49.75
54920;BME280;63804;53.120;8.764;2023-05-02T07:09:52;102313.81;;;10.88;49.74
54920;BME280;63804;53.120;8.764;2023-05-02T07:12:19;102319.28;;;10.85;49.56
54920;BME280;63804;53.120;8.764;2023-05-02T07:14:47;102322.91;;;10.83;48.75
54920;BME280;63804;53.120;8.764;2023-05-02T07:17:14;102331.44;;;10.89;48.74
54920;BME280;63804;53.120;8.764;2023-05-02T07:19:41;102333.19;;;10.71;48.49
54920;BME280;63804;53.120;8.764;2023-05-02T07:22:11;102336.41;;;10.78;47.83
54920;BME280;63804;53.120;8.764;2023-05-02T07:24:40;102352.78;;;10.86;47.51
54920;BME280;63804;53.120;8.764;2023-05-02T07:27:08;102347.44;;;10.88;47.38
54920;BME280;63804;53.120;8.764;2023-05-02T07:29:36;102352.03;;;11.02;46.71
54920;BME280;63804;53.120;8.764;2023-05-02T07:32:04;102358.34;;;11.16;46.47
54920;BME280;63804;53.120;8.764;2023-05-02T07:34:31;102349.88;;;11.27;46.10
54920;BME280;63804;53.120;8.764;2023-05-02T07:36:58;102363.28;;;11.41;46.14
54920;BME280;63804;53.120;8.764;2023-05-02T07:39:31;102367.09;;;11.53;46.12
54920;BME280;63804;53.120;8.764;2023-05-02T07:41:59;102365.44;;;11.51;45.71
54920;BME280;63804;53.120;8.764;2023-05-02T07:44:25;102367.41;;;11.47;45.41
54920;BME280;63804;53.120;8.764;2023-05-02T07:46:57;102368.66;;;11.40;44.34
54920;BME280;63804;53.120;8.764;2023-05-02T07:49:27;102372.72;;;11.30;44.47
54920;BME280;63804;53.120;8.764;2023-05-02T07:51:54;102374.59;;;11.28;44.66
54920;BME280;63804;53.120;8.764;2023-05-02T07:54:23;102378.34;;;11.41;44.60
54920;BME280;63804;53.120;8.764;2023-05-02T07:56:53;102377.94;;;11.31;44.25
54920;BME280;63804;53.120;8.764;2023-05-02T07:59:23;102379.03;;;11.27;44.39
54920;BME280;63804;53.120;8.764;2023-05-02T08:01:50;102383.53;;;11.25;44.85
54920;BME280;63804;53.120;8.764;2023-05-02T08:04:18;102385.28;;;11.26;44.62
54920;BME280;63804;53.120;8.764;2023-05-02T08:06:45;102379.97;;;11.26;44.89
54920;BME280;63804;53.120;8.764;2023-05-02T08:09:12;102383.25;;;11.31;45.00
54920;BME280;63804;53.120;8.764;2023-05-02T08:11:39;102386.44;;;11.38;45.09
54920;BME280;63804;53.120;8.764;2023-05-02T08:14:07;102394.31;;;11.39;45.11
54920;BME280;63804;53.120;8.764;2023-05-02T08:16:33;102391.81;;;11.36;45.54
54920;BME280;63804;53.120;8.764;2023-05-02T08:19:01;102399.00;;;11.34;45.70
54920;BME280;63804;53.120;8.764;2023-05-02T08:21:28;102403.28;;;11.37;46.21
54920;BME280;63804;53.120;8.764;2023-05-02T08:23:59;102409.47;;;11.37;46.40
54920;BME280;63804;53.120;8.764;2023-05-02T08:26:26;102403.28;;;11.37;46.51
54920;BME280;63804;53.120;8.764;2023-05-02T08:28:54;102412.59;;;11.45;46.31
54920;BME280;63804;53.120;8.764;2023-05-02T08:31:21;102411.94;;;11.40;46.83
54920;BME280;63804;53.120;8.764;2023-05-02T08:33:51;102416.09;;;11.46;46.78
54920;BME280;63804;53.120;8.764;2023-05-02T08:36:21;102414.53;;;11.42;46.93
54920;BME280;63804;53.120;8.764;2023-05-02T08:38:48;102415.72;;;11.54;46.36
54920;BME280;63804;53.120;8.764;2023-05-02T08:41:17;102421.53;;;11.78;45.53
54920;BME280;63804;53.120;8.764;2023-05-02T08:43:45;102425.38;;;11.89;45.69
54920;BME280;63804;53.120;8.764;2023-05-02T08:46:14;102415.31;;;11.96;46.15
54920;BME280;63804;53.120;8.764;2023-05-02T08:48:44;102422.03;;;11.86;46.00
54920;BME280;63804;53.120;8.764;2023-05-02T08:51:14;102422.88;;;11.69;45.68
54920;BME280;63804;53.120;8.764;2023-05-02T08:53:42;102424.84;;;11.65;45.96
54920;BME280;63804;53.120;8.764;2023-05-02T08:56:11;102431.53;;;11.55;46.08
54920;BME280;63804;53.120;8.764;2023-05-02T08:58:39;102431.84;;;11.66;46.06
54920;BME280;63804;53.120;8.764;2023-05-02T09:01:14;102433.50;;;11.86;45.97
54920;BME280;63804;53.120;8.764;2023-05-02T09:03:45;102436.75;;;12.09;45.68
54920;BME280;63804;53.120;8.764;2023-05-02T09:06:20;102439.53;;;12.23;44.81
54920;BME280;63804;53.120;8.764;2023-05-02T09:08:49;102453.72;;;12.06;43.67
54920;BME280;63804;53.120;8.764;2023-05-02T09:11:18;102445.91;;;12.03;43.56
54920;BME280;63804;53.120;8.764;2023-05-02T09:13:48;102446.50;;;12.08;43.02
54920;BME280;63804;53.120;8.764;2023-05-02T09:16:24;102445.63;;;12.25;42.75
54920;BME280;63804;53.120;8.764;2023-05-02T09:18:54;102447.47;;;12.40;43.13
54920;BME280;63804;53.120;8.764;2023-05-02T09:21:22;102447.78;;;12.34;43.16
54920;BME280;63804;53.120;8.764;2023-05-02T09:23:53;102447.97;;;12.47;43.17
54920;BME280;63804;53.120;8.764;2023-05-02T09:28:54;102455.66;;;12.36;42.81
54920;BME280;63804;53.120;8.764;2023-05-02T09:31:23;102455.97;;;12.14;43.21
54920;BME280;63804;53.120;8.764;2023-05-02T09:34:15;102455.84;;;12.00;43.64
54920;BME280;63804;53.120;8.764;2023-05-02T09:36:47;102451.84;;;12.41;43.09
54920;BME280;63804;53.120;8.764;2023-05-02T09:39:26;102448.59;;;12.68;42.55
54920;BME280;63804;53.120;8.764;2023-05-02T09:41:57;102461.63;;;12.73;42.86
54920;BME280;63804;53.120;8.764;2023-05-02T09:44:27;102463.59;;;12.69;42.49
54920;BME280;63804;53.120;8.764;2023-05-02T09:47:01;102460.16;;;12.51;43.00
54920;BME280;63804;53.120;8.764;2023-05-02T09:52:19;102471.75;;;12.66;42.31
54920;BME280;63804;53.120;8.764;2023-05-02T09:54:49;102474.06;;;12.72;42.23
54920;BME280;63804;53.120;8.764;2023-05-02T09:57:18;102481.53;;;12.81;41.59
54920;BME280;63804;53.120;8.764;2023-05-02T09:59:55;102480.78;;;12.79;41.45
54920;BME280;63804;53.120;8.764;2023-05-02T10:02:24;102479.00;;;12.47;42.39
54920;BME280;63804;53.120;8.764;2023-05-02T10:04:52;102483.03;;;12.38;42.71
54920;BME280;63804;53.120;8.764;2023-05-02T10:07:24;102497.16;;;12.38;42.94
54920;BME280;63804;53.120;8.764;2023-05-02T10:09:53;102499.69;;;12.24;44.18
54920;BME280;63804;53.120;8.764;2023-05-02T10:12:22;102504.78;;;12.29;44.56
54920;BME280;63804;53.120;8.764;2023-05-02T10:14:59;102508.88;;;12.52;44.53
54920;BME280;63804;53.120;8.764;2023-05-02T10:17:30;102503.56;;;12.67;44.56
54920;BME280;63804;53.120;8.764;2023-05-02T10:20:03;102504.59;;;12.81;44.71
54920;BME280;63804;53.120;8.764;2023-05-02T10:22:33;102502.09;;;12.62;45.51
54920;BME280;63804;53.120;8.764;2023-05-02T10:25:01;102505.00;;;12.57;45.92
54920;BME280;63804;53.120;8.764;2023-05-02T10:27:30;102499.81;;;12.72;45.85
54920;BME280;63804;53.120;8.764;2023-05-02T10:29:58;102515.22;;;12.65;45.87
54920;BME280;63804;53.120;8.764;2023-05-02T10:32:27;102519.50;;;12.52;46.13
54920;BME280;63804;53.120;8.764;2023-05-02T10:35:02;102528.28;;;12.36;46.67
54920;BME280;63804;53.120;8.764;2023-05-02T10:37:31;102532.59;;;12.22;47.51
54920;BME280;63804;53.120;8.764;2023-05-02T10:40:03;102527.88;;;12.27;48.01
54920;BME280;63804;53.120;8.764;2023-05-02T10:42:37;102533.66;;;12.35;47.62
54920;BME280;63804;53.120;8.764;2023-05-02T10:45:12;102529.91;;;12.39;47.80
54920;BME280;63804;53.120;8.764;2023-05-02T10:47:40;102535.91;;;12.42;47.28
54920;BME280;63804;53.120;8.764;2023-05-02T10:50:07;102534.81;;;12.47;46.91
54920;BME280;63804;53.120;8.764;2023-05-02T10:52:38;102535.66;;;12.47;46.77
54920;BME280;63804;53.120;8.764;2023-05-02T10:55:17;102543.22;;;12.55;46.11
54920;BME280;63804;53.120;8.764;2023-05-02T11:00:32;102541.34;;;12.90;45.15
54920;BME280;63804;53.120;8.764;2023-05-02T11:03:02;102540.13;;;12.96;45.30
54920;BME280;63804;53.120;8.764;2023-05-02T11:05:29;102533.78;;;12.98;45.47
54920;BME280;63804;53.120;8.764;2023-05-02T11:10:46;102542.91;;;12.61;46.13
54920;BME280;63804;53.120;8.764;2023-05-02T11:13:13;102534.44;;;12.37;46.50
54920;BME280;63804;53.120;8.764;2023-05-02T11:18:10;102556.09;;;12.12;47.01
54920;BME280;63804;53.120;8.764;2023-05-02T11:20:42;102564.06;;;12.12;47.54
54920;BME280;63804;53.120;8.764;2023-05-02T11:25:48;102576.41;;;12.13;48.93
54920;BME280;63804;53.120;8.764;2023-05-02T11:28:38;102578.50;;;12.24;49.39
54920;BME280;63804;53.120;8.764;2023-05-02T11:31:52;102582.72;;;12.28;48.33
54920;BME280;63804;53.120;8.764;2023-05-02T11:33:57;102587.50;;;12.21;48.31
54920;BME280;63804;53.120;8.764;2023-05-02T11:36:34;102583.69;;;12.44;46.74
54920;BME280;63804;53.120;8.764;2023-05-02T11:39:02;102582.38;;;12.51;46.46
54920;BME280;63804;53.120;8.764;2023-05-02T11:41:41;102582.47;;;12.67;45.82
54920;BME280;63804;53.120;8.764;2023-05-02T11:44:08;102567.56;;;12.80;45.69
54920;BME280;63804;53.120;8.764;2023-05-02T11:46:36;102573.31;;;12.88;45.57
54920;BME280;63804;53.120;8.764;2023-05-02T11:49:04;102573.75;;;12.97;45.59
54920;BME280;63804;53.120;8.764;2023-05-02T11:51:34;102569.91;;;13.02;45.22
54920;BME280;63804;53.120;8.764;2023-05-02T11:54:02;102574.44;;;13.00;44.56
54920;BME280;63804;53.120;8.764;2023-05-02T11:56:29;102581.03;;;13.26;44.62
54920;BME280;63804;53.120;8.764;2023-05-02T11:58:58;102579.91;;;13.30;44.48
54920;BME280;63804;53.120;8.764;2023-05-02T12:01:26;102583.16;;;13.35;44.96
54920;BME280;63804;53.120;8.764;2023-05-02T12:04:06;102586.69;;;13.52;44.81
54920;BME280;63804;53.120;8.764;2023-05-02T12:06:34;102584.47;;;13.44;44.88
54920;BME280;63804;53.120;8.764;2023-05-02T12:09:09;102584.34;;;13.14;44.73
54920;BME280;63804;53.120;8.764;2023-05-02T12:11:37;102584.50;;;13.11;44.79
54920;BME280;63804;53.120;8.764;2023-05-02T12:14:04;102594.16;;;13.29;44.45
54920;BME280;63804;53.120;8.764;2023-05-02T12:16:32;102591.66;;;13.42;44.65
54920;BME280;63804;53.120;8.764;2023-05-02T12:19:00;102587.59;;;13.19;44.88
54920;BME280;63804;53.120;8.764;2023-05-02T12:21:27;102588.72;;;13.15;45.08
54920;BME280;63804;53.120;8.764;2023-05-02T12:23:56;102598.63;;;13.29;44.94
54920;BME280;63804;53.120;8.764;2023-05-02T12:26:24;102597.19;;;13.55;44.51
54920;BME280;63804;53.120;8.764;2023-05-02T12:28:55;102597.34;;;13.52;44.27
54920;BME280;63804;53.120;8.764;2023-05-02T12:31:23;102598.31;;;13.51;44.39
54920;BME280;63804;53.120;8.764;2023-05-02T12:33:51;102600.13;;;13.17;45.00
54920;BME280;63804;53.120;8.764;2023-05-02T12:36:21;102602.97;;;13.14;45.49
54920;BME280;63804;53.120;8.764;2023-05-02T12:38:52;102611.97;;;13.11;45.17
54920;BME280;63804;53.120;8.764;2023-05-02T12:41:31;102622.69;;;13.10;45.10
54920;BME280;63804;53.120;8.764;2023-05-02T12:43:58;102627.16;;;13.09;45.72
54920;BME280;63804;53.120;8.764;2023-05-02T12:46:26;102618.44;;;13.23;44.96
54920;BME280;63804;53.120;8.764;2023-05-02T12:49:07;102622.22;;;13.35;44.60
54920;BME280;63804;53.120;8.764;2023-05-02T12:51:38;102631.84;;;13.37;45.00
54920;BME280;63804;53.120;8.764;2023-05-02T12:54:05;102628.16;;;13.40;45.15
54920;BME280;63804;53.120;8.764;2023-05-02T12:56:40;102632.53;;;13.41;45.13
54920;BME280;63804;53.120;8.764;2023-05-02T12:59:07;102639.06;;;13.02;46.24
54920;BME280;63804;53.120;8.764;2023-05-02T13:01:35;102650.22;;;12.76;47.20
54920;BME280;63804;53.120;8.764;2023-05-02T13:04:02;102640.59;;;12.73;47.54
54920;BME280;63804;53.120;8.764;2023-05-02T13:06:29;102651.47;;;12.68;47.50
54920;BME280;63804;53.120;8.764;2023-05-02T13:08:57;102643.94;;;12.94;47.03
54920;BME280;63804;53.120;8.764;2023-05-02T13:11:24;102651.84;;;13.11;46.22
54920;BME280;63804;53.120;8.764;2023-05-02T13:13:52;102641.31;;;13.10;46.12
54920;BME280;63804;53.120;8.764;2023-05-02T13:16:19;102654.78;;;12.89;45.78
54920;BME280;63804;53.120;8.764;2023-05-02T13:18:47;102653.03;;;12.73;45.96
54920;BME280;63804;53.120;8.764;2023-05-02T13:21:14;102649.84;;;12.66;46.26
54920;BME280;63804;53.120;8.764;2023-05-02T13:23:41;102653.94;;;12.56;46.40
54920;BME280;63804;53.120;8.764;2023-05-02T13:26:09;102653.59;;;12.62;46.31
54920;BME280;63804;53.120;8.764;2023-05-02T13:28:37;102655.41;;;12.61;46.00
54920;BME280;63804;53.120;8.764;2023-05-02T13:31:04;102656.34;;;12.60;45.58